Time;durP1;ratioP1;P1;durP2;ratioP2;P2;SDS_P1;SDS_P2;PMS_P1;PMS_P2;Temp;Humidity;BMP_temperature;BMP_pressure;BME280_temperature;BME280_humidity;BME280_pressure;Samples;Min_cycle;Max_cycle;Signal;HPM_P1;HPM_P2
2022/07/23 00:00:19;;;;;;;9.65;6.20;;;13.00;99.90;;;;;;5003171;28;20560;-42
2022/07/23 00:02:44;;;;;;;9.75;6.97;;;13.20;99.90;;;;;;5000050;28;20042;-43
2022/07/23 00:05:12;;;;;;;11.65;7.05;;;13.00;99.90;;;;;;5000048;28;20042;-42
2022/07/23 00:07:38;;;;;;;8.93;7.10;;;14.20;99.90;;;;;;5005350;28;20107;-42
2022/07/23 00:10:04;;;;;;;12.25;7.75;;;13.00;99.90;;;;;;5001426;28;20050;-42
2022/07/23 00:12:30;;;;;;;9.20;7.28;;;13.00;99.90;;;;;;4999680;28;20037;-42
2022/07/23 00:14:56;;;;;;;10.70;7.50;;;13.30;99.90;;;;;;4982895;28;20077;-42
2022/07/23 00:17:21;;;;;;;11.70;6.60;;;14.30;99.90;;;;;;5013314;28;20045;-43
2022/07/23 00:19:47;;;;;;;10.88;7.15;;;13.50;99.90;;;;;;4999982;28;20049;-46
2022/07/23 00:22:17;;;;;;;8.85;6.43;;;15.30;99.90;;;;;;5000122;28;20864;-41
2022/07/23 00:24:42;;;;;;;13.38;7.15;;;13.40;99.90;;;;;;4998314;28;20518;-42
2022/07/23 00:27:08;;;;;;;10.30;7.00;;;13.20;99.90;;;;;;5000187;28;20057;-42
2022/07/23 00:29:34;;;;;;;12.07;6.70;;;13.10;99.90;;;;;;4999500;28;20104;-43
2022/07/23 00:31:59;;;;;;;10.05;6.00;;;13.20;99.90;;;;;;4999669;28;20103;-41
2022/07/23 00:34:25;;;;;;;15.90;7.60;;;13.10;99.90;;;;;;5000296;28;20133;-41
2022/07/23 00:36:54;;;;;;;12.68;7.00;;;13.10;99.90;;;;;;5000169;28;20495;-42
2022/07/23 00:39:23;;;;;;;13.55;7.28;;;14.30;99.90;;;;;;4999899;28;20058;-42
2022/07/23 00:41:50;;;;;;;9.90;6.68;;;13.10;99.90;;;;;;5010328;28;20046;-41
2022/07/23 00:44:27;;;;;;;9.70;6.03;;;12.70;99.90;;;;;;5000119;28;20045;-42
2022/07/23 00:46:55;;;;;;;11.02;7.50;;;12.90;99.90;;;;;;4999885;28;20071;-42
2022/07/23 00:49:22;;;;;;;11.82;6.80;;;12.70;99.90;;;;;;4999758;28;20462;-42
2022/07/23 00:51:50;;;;;;;9.50;6.38;;;12.80;99.90;;;;;;5000971;28;20600;-42
2022/07/23 00:54:17;;;;;;;9.52;6.93;;;12.70;99.90;;;;;;4999740;28;20235;-42
2022/07/23 00:56:44;;;;;;;9.90;6.82;;;14.30;99.90;;;;;;5016848;28;20050;-41
2022/07/23 00:59:11;;;;;;;14.77;7.53;;;12.70;99.90;;;;;;5000891;28;20050;-42
2022/07/23 01:01:37;;;;;;;12.20;7.50;;;12.60;99.90;;;;;;4999823;28;20073;-41
2022/07/23 01:04:03;;;;;;;15.63;7.55;;;12.60;99.90;;;;;;4999232;28;20124;-42
2022/07/23 01:06:34;;;;;;;13.27;7.03;;;12.40;99.90;;;;;;4999771;28;20079;-41
2022/07/23 01:09:01;;;;;;;12.15;7.13;;;12.40;99.90;;;;;;5000172;28;20061;-43
2022/07/23 01:11:27;;;;;;;12.55;6.55;;;13.70;99.90;;;;;;4999275;28;20891;-43
2022/07/23 01:13:53;;;;;;;8.50;6.53;;;13.30;99.90;;;;;;4999086;28;20057;-46
2022/07/23 01:16:19;;;;;;;7.97;6.70;;;12.00;99.90;;;;;;4999508;28;20149;-40
2022/07/23 01:18:45;;;;;;;10.57;6.82;;;12.00;99.90;;;;;;4981283;28;20272;-42
2022/07/23 01:21:13;;;;;;;12.13;6.93;;;12.60;99.90;;;;;;4999204;28;20046;-42
2022/07/23 01:23:38;;;;;;;8.05;6.40;;;13.40;99.90;;;;;;5000931;28;20137;-42
2022/07/23 01:26:04;;;;;;;6.93;5.00;;;11.90;99.90;;;;;;4999086;28;20153;-42
2022/07/23 01:28:30;;;;;;;8.38;4.93;;;13.90;99.90;;;;;;4998974;28;20145;-43
2022/07/23 01:30:56;;;;;;;5.97;3.92;;;11.80;99.90;;;;;;4999245;28;20057;-42
2022/07/23 01:33:21;;;;;;;8.63;5.38;;;12.20;99.90;;;;;;4981304;28;20045;-42
2022/07/23 01:35:47;;;;;;;8.25;5.68;;;11.60;99.90;;;;;;5000515;28;20040;-42
2022/07/23 01:38:13;;;;;;;11.52;5.60;;;11.80;99.90;;;;;;5004424;28;20045;-42
2022/07/23 01:40:38;;;;;;;5.65;4.05;;;11.60;99.90;;;;;;5008665;28;20136;-43
2022/07/23 01:43:04;;;;;;;6.65;3.97;;;11.70;99.90;;;;;;5003011;28;20474;-43
2022/07/23 01:45:30;;;;;;;7.78;4.68;;;11.40;99.90;;;;;;4984052;28;20446;-42
2022/07/23 01:47:59;;;;;;;6.55;4.70;;;11.40;99.90;;;;;;5002924;28;20124;-42
2022/07/23 01:50:25;;;;;;;6.63;4.28;;;11.40;99.90;;;;;;5015495;28;20567;-41
2022/07/23 01:52:50;;;;;;;9.25;5.55;;;11.30;99.90;;;;;;5001156;28;20128;-43
2022/07/23 01:55:16;;;;;;;7.47;5.50;;;11.20;99.90;;;;;;5009031;28;20081;-43
2022/07/23 01:57:42;;;;;;;8.55;5.28;;;12.10;99.90;;;;;;5002490;28;20069;-42
2022/07/23 02:00:08;;;;;;;8.35;4.68;;;11.20;99.90;;;;;;5002475;28;20218;-42
2022/07/23 02:02:34;;;;;;;6.80;4.93;;;11.20;99.90;;;;;;5002301;28;20045;-43
2022/07/23 02:04:59;;;;;;;9.13;5.15;;;12.00;99.90;;;;;;5002207;28;20041;-42
2022/07/23 02:07:25;;;;;;;9.38;5.90;;;13.30;99.90;;;;;;5002441;28;20529;-44
2022/07/23 02:09:52;;;;;;;10.40;5.97;;;11.20;99.90;;;;;;5002029;28;20121;-42
2022/07/23 02:12:18;;;;;;;8.65;5.55;;;12.20;99.90;;;;;;5002296;28;20045;-42
2022/07/23 02:14:43;;;;;;;9.00;5.55;;;12.50;99.90;;;;;;5001985;28;20231;-42
2022/07/23 02:17:11;;;;;;;7.63;4.22;;;11.10;99.90;;;;;;5001435;28;20056;-41
2022/07/23 02:19:36;;;;;;;8.15;3.30;;;11.20;99.90;;;;;;5002593;28;20073;-45
2022/07/23 02:22:02;;;;;;;10.25;3.90;;;11.00;99.90;;;;;;5002400;28;20104;-42
2022/07/23 02:24:28;;;;;;;9.30;3.50;;;10.90;99.90;;;;;;5002800;28;20050;-41
2022/07/23 02:26:53;;;;;;;6.70;3.70;;;11.00;99.90;;;;;;5000674;28;20057;-41
2022/07/23 02:29:19;;;;;;;7.60;4.07;;;12.10;99.90;;;;;;5002540;28;20065;-41
2022/07/23 02:31:46;;;;;;;7.72;3.15;;;10.80;99.90;;;;;;4984603;28;20052;-41
2022/07/23 02:34:12;;;;;;;6.20;3.22;;;12.00;99.90;;;;;;4988150;28;20052;-43
2022/07/23 02:36:39;;;;;;;5.03;3.08;;;12.40;99.90;;;;;;5005091;28;20050;-46
2022/07/23 02:39:05;;;;;;;6.07;3.70;;;10.80;99.90;;;;;;5009453;28;20046;-42
2022/07/23 02:41:30;;;;;;;8.93;4.55;;;10.60;99.90;;;;;;5006485;28;20049;-42
2022/07/23 02:43:56;;;;;;;9.20;5.72;;;10.60;99.90;;;;;;5002441;28;20040;-41
2022/07/23 02:46:22;;;;;;;8.70;5.20;;;10.60;99.90;;;;;;4984177;28;20042;-42
2022/07/23 02:48:47;;;;;;;9.93;6.18;;;10.80;99.90;;;;;;5001304;28;20038;-41
2022/07/23 02:51:13;;;;;;;11.93;6.25;;;10.90;99.90;;;;;;5002334;28;20045;-46
2022/07/23 02:53:41;;;;;;;13.95;7.53;;;10.60;99.90;;;;;;5001754;28;20065;-43
2022/07/23 02:56:06;;;;;;;14.05;7.88;;;11.00;99.90;;;;;;5001575;28;20057;-45
2022/07/23 02:58:32;;;;;;;11.73;8.05;;;10.90;99.90;;;;;;5004278;28;20050;-43
2022/07/23 03:00:58;;;;;;;14.25;7.70;;;11.10;99.90;;;;;;5001037;28;20490;-43
2022/07/23 03:03:23;;;;;;;12.07;7.60;;;11.00;99.90;;;;;;5006223;28;20049;-42
2022/07/23 03:05:49;;;;;;;15.25;7.90;;;11.00;99.90;;;;;;5003650;28;20099;-41
2022/07/23 03:08:17;;;;;;;10.15;7.03;;;10.80;99.90;;;;;;5009937;28;20046;-43
2022/07/23 03:10:42;;;;;;;8.57;6.78;;;11.00;99.90;;;;;;5001076;28;20053;-42
2022/07/23 03:13:10;;;;;;;10.25;7.00;;;12.40;99.90;;;;;;5000885;28;20399;-41
2022/07/23 03:15:35;;;;;;;11.30;6.78;;;11.60;99.90;;;;;;5001884;28;20038;-41
2022/07/23 03:18:01;;;;;;;8.00;6.15;;;10.80;99.90;;;;;;5000518;28;20049;-42
2022/07/23 03:20:27;;;;;;;9.57;6.15;;;10.60;99.90;;;;;;5001263;28;20183;-41
2022/07/23 03:22:52;;;;;;;10.65;6.35;;;10.80;99.90;;;;;;5000792;28;20057;-41
2022/07/23 03:25:18;;;;;;;10.50;5.85;;;10.60;99.90;;;;;;5000835;28;20120;-42
2022/07/23 03:27:45;;;;;;;8.57;5.22;;;10.50;99.90;;;;;;5000466;28;20159;-44
2022/07/23 03:30:11;;;;;;;7.28;4.93;;;10.60;99.90;;;;;;4982850;28;20116;-44
2022/07/23 03:32:37;;;;;;;8.02;5.68;;;10.50;99.90;;;;;;5000364;28;20581;-41
2022/07/23 03:35:05;;;;;;;7.95;5.70;;;10.70;99.90;;;;;;5000964;28;20045;-43
2022/07/23 03:37:31;;;;;;;7.43;5.30;;;10.60;99.90;;;;;;5001261;28;20046;-42
2022/07/23 03:39:56;;;;;;;11.13;5.75;;;10.60;99.90;;;;;;5000936;28;20163;-42
2022/07/23 03:42:22;;;;;;;7.53;5.13;;;10.70;99.90;;;;;;5000591;28;20052;-45
2022/07/23 03:44:48;;;;;;;8.10;4.88;;;12.00;99.90;;;;;;5002963;28;20037;-42
2022/07/23 03:47:14;;;;;;;6.72;5.18;;;10.70;99.90;;;;;;5000323;28;20115;-42
2022/07/23 03:49:39;;;;;;;8.63;4.85;;;11.10;99.90;;;;;;5000918;28;20081;-42
2022/07/23 03:52:07;;;;;;;9.32;5.32;;;10.80;99.90;;;;;;5000433;28;20101;-42
2022/07/23 03:54:33;;;;;;;9.80;5.97;;;10.90;99.90;;;;;;5000625;28;20041;-43
2022/07/23 03:56:58;;;;;;;8.70;5.32;;;10.80;99.90;;;;;;5005445;28;20729;-42
2022/07/23 03:59:28;;;;;;;8.60;5.32;;;10.70;99.90;;;;;;5000834;28;20077;-43
2022/07/23 04:01:53;;;;;;;7.80;5.75;;;11.30;99.90;;;;;;4982051;28;20514;-42
2022/07/23 04:04:19;;;;;;;8.95;5.82;;;10.70;99.90;;;;;;5000757;28;20042;-43
2022/07/23 04:06:46;;;;;;;6.88;4.70;;;10.70;99.90;;;;;;5001577;28;20516;-42
2022/07/23 04:09:13;;;;;;;10.05;5.97;;;10.90;99.90;;;;;;4999989;28;20073;-43
2022/07/23 04:11:38;;;;;;;9.30;5.25;;;11.00;99.90;;;;;;4999942;28;20434;-42
2022/07/23 04:14:04;;;;;;;9.25;5.10;;;11.50;99.90;;;;;;4999981;28;20049;-42
2022/07/23 04:16:31;;;;;;;8.27;5.80;;;12.40;99.90;;;;;;4999935;28;20141;-41
2022/07/23 04:18:57;;;;;;;10.30;6.05;;;11.00;99.90;;;;;;4999669;28;20046;-41
2022/07/23 04:21:25;;;;;;;15.60;7.57;;;11.20;99.90;;;;;;5000103;28;20509;-41
2022/07/23 04:23:50;;;;;;;8.60;6.10;;;12.30;99.90;;;;;;5006388;28;20046;-41
2022/07/23 04:26:16;;;;;;;11.48;6.97;;;11.30;99.90;;;;;;4999576;28;20037;-41
2022/07/23 04:28:42;;;;;;;11.57;7.00;;;11.40;99.90;;;;;;4999516;28;20050;-42
2022/07/23 04:31:08;;;;;;;15.05;7.47;;;11.30;99.90;;;;;;4999375;28;20053;-40
2022/07/23 04:33:34;;;;;;;9.95;6.68;;;11.60;99.90;;;;;;4999850;28;20049;-43
2022/07/23 04:35:59;;;;;;;11.75;7.05;;;12.20;99.90;;;;;;4999584;28;20081;-42
2022/07/23 04:38:25;;;;;;;12.18;8.07;;;12.80;99.90;;;;;;5000130;28;20133;-41
2022/07/23 04:40:51;;;;;;;12.32;7.07;;;11.90;99.90;;;;;;4998418;28;20415;-44
2022/07/23 04:43:19;;;;;;;12.20;6.20;;;12.10;99.90;;;;;;4999645;28;20121;-42
2022/07/23 04:45:44;;;;;;;11.02;6.28;;;12.90;99.90;;;;;;5005979;28;20105;-42
2022/07/23 04:48:10;;;;;;;10.45;6.00;;;12.20;99.90;;;;;;4999551;28;20129;-41
2022/07/23 04:50:36;;;;;;;10.32;6.10;;;12.40;99.90;;;;;;5000000;28;20081;-43
2022/07/23 04:53:02;;;;;;;12.05;6.00;;;12.30;99.90;;;;;;5004436;28;20183;-41
2022/07/23 04:55:28;;;;;;;10.02;6.50;;;12.30;99.90;;;;;;5006294;28;20472;-42
2022/07/23 04:57:55;;;;;;;11.35;6.13;;;12.40;99.90;;;;;;5005427;28;20045;-45
2022/07/23 05:00:21;;;;;;;9.18;5.97;;;12.50;99.90;;;;;;5002521;28;20069;-41
2022/07/23 05:02:48;;;;;;;10.68;5.85;;;12.40;99.90;;;;;;4999909;28;20089;-42
2022/07/23 05:05:14;;;;;;;7.95;5.53;;;12.60;99.90;;;;;;4999751;28;20045;-41
2022/07/23 05:07:40;;;;;;;8.55;5.90;;;12.40;99.90;;;;;;4999644;28;20124;-43
2022/07/23 05:10:06;;;;;;;14.15;6.18;;;12.40;99.90;;;;;;5000507;28;20141;-41
2022/07/23 05:12:32;;;;;;;10.90;6.32;;;12.50;99.90;;;;;;5007128;28;20084;-41
2022/07/23 05:14:58;;;;;;;10.00;6.15;;;12.80;99.90;;;;;;5013429;28;20076;-41
2022/07/23 05:17:26;;;;;;;10.70;5.65;;;12.70;99.90;;;;;;5010213;28;20081;-42
2022/07/23 05:19:51;;;;;;;11.50;6.07;;;12.10;99.90;;;;;;5003778;28;20053;-42
2022/07/23 05:22:17;;;;;;;13.35;6.10;;;13.60;99.90;;;;;;5003624;28;20042;-42
2022/07/23 05:24:44;;;;;;;7.75;5.43;;;12.80;99.90;;;;;;5003607;28;20042;-42
2022/07/23 05:27:10;;;;;;;9.27;4.78;;;12.90;99.90;;;;;;5003447;28;20528;-41
2022/07/23 05:29:36;;;;;;;9.77;5.97;;;14.00;99.90;;;;;;4991430;28;20045;-45
2022/07/23 05:32:01;;;;;;;8.52;5.82;;;15.00;99.90;;;;;;5003401;28;20054;-43
2022/07/23 05:34:27;;;;;;;9.20;5.15;;;13.30;99.90;;;;;;5003241;28;20092;-41
2022/07/23 05:36:53;;;;;;;9.35;4.85;;;13.40;99.90;;;;;;5003385;28;20042;-40
2022/07/23 05:39:18;;;;;;;9.40;4.50;;;13.80;99.90;;;;;;5003137;28;20630;-45
2022/07/23 05:41:44;;;;;;;8.20;4.45;;;13.70;99.90;;;;;;5002670;28;20143;-41
2022/07/23 05:44:10;;;;;;;8.15;4.63;;;14.10;99.90;;;;;;5002726;28;20045;-41
2022/07/23 05:46:35;;;;;;;6.05;4.10;;;15.30;99.90;;;;;;5002715;28;20384;-42
2022/07/23 05:49:01;;;;;;;8.55;4.28;;;16.00;99.90;;;;;;5002950;28;20438;-44
2022/07/23 05:51:27;;;;;;;8.55;4.13;;;14.50;99.90;;;;;;5002612;28;20048;-43
2022/07/23 05:53:52;;;;;;;9.85;3.72;;;14.70;99.90;;;;;;4984669;28;20465;-46
2022/07/23 05:56:18;;;;;;;5.75;2.97;;;15.10;99.90;;;;;;5001004;28;20298;-43
2022/07/23 05:58:44;;;;;;;5.13;2.67;;;15.10;99.90;;;;;;5002912;28;20041;-43
2022/07/23 06:01:11;;;;;;;6.43;2.65;;;16.40;99.90;;;;;;5008698;28;20034;-42
2022/07/23 06:03:38;;;;;;;6.47;2.20;;;16.40;99.90;;;;;;5002256;28;20046;-42
2022/07/23 06:06:04;;;;;;;7.07;2.42;;;16.00;99.90;;;;;;5015333;28;20041;-43
2022/07/23 06:08:30;;;;;;;3.28;1.58;;;16.30;99.90;;;;;;4983364;28;20065;-47
2022/07/23 06:10:56;;;;;;;4.97;1.77;;;16.40;99.90;;;;;;4999951;28;20610;-43
2022/07/23 06:13:22;;;;;;;7.55;1.90;;;16.40;99.90;;;;;;4982394;28;20096;-43
2022/07/23 06:15:48;;;;;;;4.70;1.95;;;17.70;99.90;;;;;;4999007;28;20042;-42
2022/07/23 06:18:14;;;;;;;3.38;1.80;;;16.50;99.90;;;;;;4998076;28;20547;-43
2022/07/23 06:20:39;;;;;;;6.18;1.60;;;17.20;99.90;;;;;;5002469;28;20042;-43
2022/07/23 06:23:07;;;;;;;3.22;1.55;;;16.80;99.90;;;;;;5010284;28;20057;-43
2022/07/23 06:25:33;;;;;;;4.72;2.00;;;18.60;99.90;;;;;;4984520;28;20038;-43
2022/07/23 06:27:59;;;;;;;3.75;1.80;;;17.00;99.90;;;;;;5001909;28;20061;-42
2022/07/23 06:30:25;;;;;;;4.75;1.80;;;17.00;99.90;;;;;;5002455;28;20712;-44
2022/07/23 06:32:51;;;;;;;5.43;1.70;;;15.40;99.90;;;;;;5010708;28;20042;-42
2022/07/23 06:35:17;;;;;;;3.80;1.50;;;17.90;99.90;;;;;;4993808;28;20124;-44
2022/07/23 06:37:43;;;;;;;3.78;1.33;;;18.10;99.90;;;;;;5001891;28;20155;-43
2022/07/23 06:40:11;;;;;;;1.92;1.10;;;20.10;99.10;;;;;;5002618;28;20050;-43
2022/07/23 06:42:38;;;;;;;2.92;1.20;;;18.20;98.40;;;;;;5012031;28;20049;-44
2022/07/23 06:45:07;;;;;;;3.58;1.30;;;18.30;97.40;;;;;;5001324;28;20085;-45
2022/07/23 06:47:32;;;;;;;5.22;1.05;;;18.10;96.30;;;;;;5008479;28;20045;-46
2022/07/23 06:49:58;;;;;;;3.40;0.95;;;17.90;95.80;;;;;;5004128;28;20038;-45
2022/07/23 06:52:26;;;;;;;3.95;0.70;;;18.10;96.00;;;;;;5002227;28;20084;-48
2022/07/23 06:54:52;;;;;;;1.60;0.80;;;18.10;95.40;;;;;;5001636;28;20045;-43
2022/07/23 06:57:18;;;;;;;2.28;0.80;;;17.40;95.40;;;;;;5000796;28;20506;-46
2022/07/23 06:59:44;;;;;;;3.25;0.80;;;19.10;97.10;;;;;;5001466;28;20049;-45
2022/07/23 07:02:09;;;;;;;3.55;0.77;;;17.80;96.30;;;;;;5002421;28;20675;-44
2022/07/23 07:04:35;;;;;;;3.25;0.70;;;17.60;96.30;;;;;;5001377;28;20033;-44
2022/07/23 07:07:01;;;;;;;3.38;1.10;;;18.00;96.30;;;;;;4983823;28;20554;-44
2022/07/23 07:09:27;;;;;;;2.30;0.60;;;19.60;95.80;;;;;;5001116;28;20892;-44
2022/07/23 07:11:52;;;;;;;2.97;0.80;;;21.00;73.80;;;;;;5000590;28;20438;-44
2022/07/23 07:14:18;;;;;;;1.83;0.50;;;24.40;17.20;;;;;;5002123;28;20054;-48
2022/07/23 07:16:44;;;;;;;3.30;0.70;;;23.60;1.00;;;;;;5002765;28;20045;-48
2022/07/23 07:19:09;;;;;;;2.45;0.60;;;24.40;99.90;;;;;;4999091;28;20045;-45
2022/07/23 07:21:35;;;;;;;2.35;0.47;;;25.50;1.00;;;;;;4997213;28;20049;-44
2022/07/23 07:24:01;;;;;;;2.20;0.50;;;25.80;91.70;;;;;;4999711;28;20046;-48
2022/07/23 07:26:27;;;;;;;1.90;0.40;;;26.50;99.90;;;;;;5000947;28;20056;-46
2022/07/23 07:28:56;;;;;;;1.00;0.40;;;26.80;99.90;;;;;;5000824;28;20116;-49
2022/07/23 07:31:22;;;;;;;2.75;0.70;;;27.10;99.90;;;;;;5000837;28;20049;-47
2022/07/23 07:33:47;;;;;;;2.90;0.50;;;26.70;62.10;;;;;;5000464;28;20100;-47
2022/07/23 07:36:13;;;;;;;0.98;0.38;;;26.30;1.00;;;;;;5001070;28;20532;-47
2022/07/23 07:38:39;;;;;;;1.75;0.50;;;26.00;3.90;;;;;;5000886;28;20145;-47
2022/07/23 07:41:05;;;;;;;1.60;0.30;;;25.80;1.00;;;;;;5000900;28;20042;-48
2022/07/23 07:43:33;;;;;;;3.03;0.30;;;26.70;99.90;;;;;;5000885;28;20038;-45
2022/07/23 07:45:59;;;;;;;1.90;0.63;;;26.50;99.90;;;;;;5000436;28;20578;-49
2022/07/23 07:48:24;;;;;;;1.58;0.30;;;26.40;99.90;;;;;;5001202;28;20118;-47
2022/07/23 07:50:50;;;;;;;3.60;0.55;;;25.90;99.90;;;;;;5000654;28;20049;-48
2022/07/23 07:53:16;;;;;;;1.73;0.60;;;25.70;99.90;;;;;;5000167;28;20046;-48
2022/07/23 07:55:42;;;;;;;2.50;0.63;;;26.00;99.90;;;;;;4999709;28;20077;-46
2022/07/23 07:58:07;;;;;;;2.60;0.50;;;25.50;99.90;;;;;;5000812;28;20651;-48
2022/07/23 08:00:33;;;;;;;1.15;0.40;;;24.40;99.90;;;;;;5001702;28;20286;-47
2022/07/23 08:02:59;;;;;;;4.10;0.80;;;23.60;1.00;;;;;;5000852;28;20522;-48
2022/07/23 08:05:27;;;;;;;2.85;0.40;;;22.90;56.20;;;;;;5000873;28;20045;-44
2022/07/23 08:07:54;;;;;;;1.73;0.50;;;22.30;99.90;;;;;;4999314;28;20121;-49
2022/07/23 08:10:20;;;;;;;2.47;0.68;;;22.00;1.00;;;;;;5006402;28;20049;-47
2022/07/23 08:12:49;;;;;;;2.33;0.65;;;21.80;25.80;;;;;;5000475;28;20361;-45
2022/07/23 08:15:16;;;;;;;1.67;0.63;;;21.50;99.90;;;;;;5000452;28;20050;-48
2022/07/23 08:17:43;;;;;;;2.15;0.68;;;21.10;99.90;;;;;;5003452;28;20528;-44
2022/07/23 08:20:11;;;;;;;3.38;0.60;;;21.90;1.00;;;;;;5008738;28;20054;-44
2022/07/23 08:22:56;;;;;;;3.60;0.80;;;20.80;99.90;;;;;;5000101;28;20058;-48
2022/07/23 08:25:28;;;;;;;4.13;0.60;;;21.10;99.90;;;;;;5000164;28;20046;-46
2022/07/23 08:27:55;;;;;;;3.63;0.60;;;21.30;99.90;;;;;;4999814;28;20233;-46
2022/07/23 08:30:21;;;;;;;2.28;0.60;;;22.80;99.90;;;;;;4999797;28;20111;-45
2022/07/23 08:32:53;;;;;;;4.30;0.80;;;21.20;99.90;;;;;;4981516;28;20054;-44
2022/07/23 08:35:42;;;;;;;4.72;0.50;;;21.10;99.90;;;;;;5000247;28;20425;-45
2022/07/23 08:38:10;;;;;;;3.58;0.60;;;20.80;99.90;;;;;;5010043;28;20175;-47
2022/07/23 08:40:38;;;;;;;2.30;0.52;;;21.40;99.90;;;;;;4985129;28;20075;-46
2022/07/23 08:43:06;;;;;;;5.47;0.60;;;20.60;99.90;;;;;;4999237;28;20183;-45
2022/07/23 08:45:39;;;;;;;1.95;0.60;;;20.40;99.90;;;;;;4998892;28;20093;-43
2022/07/23 08:48:11;;;;;;;1.13;0.50;;;20.20;99.90;;;;;;4999319;28;20050;-44
2022/07/23 08:50:37;;;;;;;1.75;0.40;;;19.90;99.90;;;;;;4999830;28;20441;-46
2022/07/23 08:53:07;;;;;;;3.25;0.50;;;19.60;1.00;;;;;;4999119;28;20077;-45
2022/07/23 08:55:32;;;;;;;2.25;0.40;;;19.60;48.80;;;;;;4999539;28;20222;-46
2022/07/23 08:57:58;;;;;;;1.27;0.45;;;19.70;1.00;;;;;;4999483;28;20042;-45
2022/07/23 09:00:24;;;;;;;1.60;0.45;;;21.60;4.30;;;;;;5012367;28;20059;-45
2022/07/23 09:02:50;;;;;;;2.67;0.80;;;20.60;1.00;;;;;;4999489;28;20081;-45
2022/07/23 09:05:17;;;;;;;2.63;0.50;;;19.00;99.90;;;;;;4999116;28;20632;-43
2022/07/23 09:08:05;;;;;;;2.97;0.60;;;19.10;1.00;;;;;;4999614;28;20052;-44
2022/07/23 09:10:46;;;;;;;1.25;0.50;;;19.20;1.00;;;;;;4999606;28;20495;-43
2022/07/23 09:13:46;;;;;;;1.85;0.38;;;19.10;1.00;;;;;;5008402;28;20046;-47
2022/07/23 09:16:14;;;;;;;2.13;0.55;;;21.20;1.00;;;;;;5011785;28;20394;-45
2022/07/23 09:18:43;;;;;;;2.15;0.50;;;19.10;99.90;;;;;;4999526;28;20129;-44
2022/07/23 09:21:13;;;;;;;2.45;0.60;;;19.20;99.90;;;;;;5012706;28;20058;-44
2022/07/23 09:23:56;;;;;;;4.05;0.77;;;19.70;99.90;;;;;;4999774;28;20050;-45
2022/07/23 09:26:34;;;;;;;2.15;0.73;;;20.50;99.90;;;;;;4999430;28;20129;-46
2022/07/23 09:29:13;;;;;;;2.17;0.50;;;20.40;99.90;;;;;;4998724;28;20062;-48
2022/07/23 09:31:58;;;;;;;2.20;0.60;;;20.40;71.30;;;;;;4999435;28;20938;-44
2022/07/23 09:34:24;;;;;;;2.25;0.30;;;20.30;54.80;;;;;;5003362;28;20045;-45
2022/07/23 09:36:57;;;;;;;4.28;0.57;;;20.30;61.30;;;;;;4998793;28;20486;-54
2022/07/23 09:39:32;;;;;;;4.10;0.70;;;20.20;20.80;;;;;;4998974;28;20097;-44
2022/07/23 09:42:23;;;;;;;1.48;0.55;;;20.10;99.90;;;;;;5006136;28;20137;-44
2022/07/23 09:44:52;;;;;;;3.17;0.80;;;19.90;1.00;;;;;;4998955;28;20037;-45
2022/07/23 09:47:18;;;;;;;3.17;0.65;;;19.70;64.50;;;;;;4998723;28;20041;-43
2022/07/23 09:50:04;;;;;;;3.40;0.65;;;19.50;99.90;;;;;;5012190;28;20052;-44
2022/07/23 09:52:36;;;;;;;3.20;0.60;;;19.60;99.90;;;;;;5001220;28;20104;-48
2022/07/23 09:55:06;;;;;;;1.90;0.65;;;20.90;99.90;;;;;;4999530;28;20045;-45
2022/07/23 09:57:33;;;;;;;3.78;0.63;;;19.50;99.90;;;;;;5001759;28;20038;-46
2022/07/23 10:00:05;;;;;;;1.63;0.63;;;19.60;1.00;;;;;;5002162;28;20046;-44
2022/07/23 10:02:32;;;;;;;3.83;0.82;;;21.20;99.90;;;;;;5015699;28;20052;-43
2022/07/23 10:04:58;;;;;;;2.88;0.90;;;19.80;1.00;;;;;;5002457;28;20061;-44
2022/07/23 10:07:26;;;;;;;3.22;1.20;;;20.10;1.00;;;;;;5002716;28;20038;-47
2022/07/23 10:09:53;;;;;;;4.35;0.60;;;20.30;99.90;;;;;;5011382;28;20033;-46
2022/07/23 10:15:08;;;;;;;4.05;0.93;;;20.40;1.00;;;;;;5002497;28;20053;-48
2022/07/23 10:17:35;;;;;;;15.27;1.65;;;20.30;1.00;;;;;;5002358;28;20125;-43
2022/07/23 10:20:03;;;;;;;11.02;1.10;;;20.10;99.90;;;;;;5002469;28;20057;-45
2022/07/23 10:22:37;;;;;;;18.35;1.25;;;20.00;99.90;;;;;;5002261;28;20085;-46
2022/07/23 10:25:21;;;;;;;8.13;0.93;;;20.00;99.90;;;;;;5002065;28;20485;-47
2022/07/23 10:27:59;;;;;;;3.97;1.10;;;20.00;99.90;;;;;;5002550;28;20054;-44
2022/07/23 10:30:42;;;;;;;7.05;0.90;;;20.00;1.00;;;;;;5001747;28;20050;-44
2022/07/23 10:33:29;;;;;;;6.20;0.80;;;19.70;1.00;;;;;;5001758;28;20073;-43
2022/07/23 10:36:09;;;;;;;3.05;0.73;;;19.70;82.70;;;;;;5003137;28;20076;-43
2022/07/23 10:39:00;;;;;;;2.08;0.60;;;19.60;99.90;;;;;;5002427;28;20046;-44
2022/07/23 10:41:38;;;;;;;3.45;0.98;;;19.80;99.90;;;;;;5010769;28;20038;-45
2022/07/23 10:44:12;;;;;;;2.83;0.80;;;19.60;99.90;;;;;;5001756;28;20061;-45
2022/07/23 10:49:45;;;;;;;1.92;0.70;;;19.30;1.00;;;;;;4960196;28;20134;-46
2022/07/23 10:52:26;;;;;;;2.92;1.13;;;19.00;48.00;;;;;;4958549;28;20602;-43
2022/07/23 10:55:16;;;;;;;3.38;0.90;;;19.50;1.00;;;;;;4956124;28;20527;-43
2022/07/23 10:57:49;;;;;;;5.30;1.10;;;19.60;1.00;;;;;;4953047;28;20057;-45
2022/07/23 11:00:19;;;;;;;5.72;1.17;;;21.10;34.90;;;;;;4957005;28;20054;-43
2022/07/23 11:02:46;;;;;;;2.40;0.93;;;19.50;99.90;;;;;;4967675;28;20054;-46
2022/07/23 11:05:17;;;;;;;3.47;0.90;;;19.50;99.90;;;;;;4958328;28;20093;-44
2022/07/23 11:08:04;;;;;;;4.95;1.13;;;19.70;99.90;;;;;;4958998;28;20697;-48
2022/07/23 11:10:49;;;;;;;4.05;0.98;;;20.00;1.00;;;;;;4959545;28;20145;-44
2022/07/23 11:13:42;;;;;;;3.58;1.00;;;20.10;1.00;;;;;;4959054;28;20055;-47
2022/07/23 11:16:17;;;;;;;3.50;0.90;;;20.10;99.90;;;;;;4959888;28;20050;-44
2022/07/23 11:18:42;;;;;;;3.22;0.70;;;20.10;99.90;;;;;;4958642;28;20043;-43
2022/07/23 11:21:26;;;;;;;3.15;1.10;;;20.10;99.90;;;;;;4946818;28;20113;-43
2022/07/23 11:24:02;;;;;;;4.47;1.00;;;20.00;99.90;;;;;;4959766;28;20086;-44
2022/07/23 11:26:43;;;;;;;2.90;0.85;;;20.10;99.90;;;;;;4974432;28;20068;-45
2022/07/23 11:29:36;;;;;;;4.75;1.15;;;20.10;99.90;;;;;;5000346;28;20069;-44
2022/07/23 11:32:04;;;;;;;6.93;2.17;;;20.90;1.00;;;;;;5000038;28;20052;-46
2022/07/23 11:34:34;;;;;;;2.88;1.10;;;21.30;99.90;;;;;;5000580;28;20052;-44
2022/07/23 11:37:01;;;;;;;5.75;1.10;;;21.50;99.90;;;;;;5000932;28;20487;-43
2022/07/23 11:39:31;;;;;;;3.97;1.17;;;22.20;99.90;;;;;;5000812;28;20077;-45
2022/07/23 11:41:58;;;;;;;5.65;2.10;;;22.50;99.90;;;;;;5000606;28;20075;-45
2022/07/23 11:44:34;;;;;;;4.53;1.00;;;22.40;99.90;;;;;;5000725;28;20052;-43
2022/07/23 11:47:09;;;;;;;2.53;0.98;;;22.40;99.90;;;;;;5000757;28;20057;-43
2022/07/23 11:49:36;;;;;;;3.97;0.90;;;22.20;99.90;;;;;;5000565;28;20049;-45
2022/07/23 11:52:04;;;;;;;6.20;1.10;;;22.00;99.90;;;;;;5000191;28;20525;-43
2022/07/23 11:54:33;;;;;;;2.67;0.73;;;22.20;99.90;;;;;;5000253;28;20125;-45
2022/07/23 11:57:00;;;;;;;3.50;0.90;;;22.20;1.00;;;;;;5000750;28;20060;-49
2022/07/23 11:59:30;;;;;;;2.83;1.10;;;24.50;1.00;;;;;;4984266;28;20050;-44
2022/07/23 12:02:00;;;;;;;4.32;1.30;;;22.50;99.90;;;;;;5013581;28;20191;-44
2022/07/23 12:04:44;;;;;;;2.15;1.05;;;22.50;99.90;;;;;;5009715;28;20042;-43
2022/07/23 12:07:49;;;;;;;3.85;1.00;;;23.40;99.90;;;;;;5000084;28;20085;-44
2022/07/23 12:10:24;;;;;;;4.80;1.85;;;22.80;99.90;;;;;;4942010;28;20054;-46
2022/07/23 12:13:06;;;;;;;3.72;0.93;;;22.90;99.90;;;;;;4924093;28;20051;-47
2022/07/23 12:15:38;;;;;;;2.75;0.90;;;23.00;99.90;;;;;;4939001;28;20043;-44
2022/07/23 12:18:06;;;;;;;5.55;0.90;;;23.00;99.90;;;;;;4938764;28;20058;-43
2022/07/23 12:20:38;;;;;;;3.08;0.85;;;23.10;26.90;;;;;;4938811;28;20058;-48
2022/07/23 12:23:05;;;;;;;3.20;1.00;;;23.10;1.00;;;;;;4939247;28;20130;-44
2022/07/23 12:25:39;;;;;;;2.75;0.82;;;22.70;1.00;;;;;;4938910;28;20063;-45
2022/07/23 12:28:08;;;;;;;3.08;1.02;;;22.60;99.90;;;;;;4938617;28;20119;-43
2022/07/23 12:30:41;;;;;;;2.58;1.10;;;24.00;99.90;;;;;;4938662;28;20090;-43
2022/07/23 12:33:09;;;;;;;3.10;1.20;;;22.10;99.90;;;;;;4953047;28;20050;-44
2022/07/23 12:35:40;;;;;;;3.10;0.90;;;22.10;99.90;;;;;;4944647;28;20054;-44
2022/07/23 12:38:09;;;;;;;4.57;1.35;;;21.90;99.90;;;;;;4940618;28;20236;-46
2022/07/23 12:40:45;;;;;;;6.10;1.00;;;22.20;99.90;;;;;;4940188;28;20819;-44
2022/07/23 12:43:31;;;;;;;2.42;0.70;;;22.40;99.90;;;;;;4950202;28;20079;-43
2022/07/23 12:46:11;;;;;;;1.67;0.82;;;22.80;99.90;;;;;;4999344;28;20045;-44
2022/07/23 12:48:56;;;;;;;4.07;1.23;;;23.20;99.90;;;;;;5001939;28;20038;-45
2022/07/23 12:51:28;;;;;;;4.63;0.80;;;23.00;99.90;;;;;;5007081;28;20125;-44
2022/07/23 12:54:15;;;;;;;2.35;1.00;;;22.60;99.90;;;;;;5003113;28;20321;-43
2022/07/23 12:56:44;;;;;;;1.90;0.90;;;22.50;99.90;;;;;;4999965;28;20081;-47
2022/07/23 12:59:16;;;;;;;3.05;1.10;;;22.40;99.90;;;;;;4999797;28;20054;-44